Riga, Latvia
Current Conditions -  °F | °C
As of 8:20 AM on Tuesday 21 Oct 2014 (Local Time) from EVRA Reporting Station
Overcast Overcast  
Wind Chill: 45°   Ceiling: 3400
Heat Index: 48°   Visibility: 6mi
Dew Point: 45°   Wind: 7mph
Humidity: 87%   Direction: 320°NW
Pressure: 29.56"   Gusts: NA
Location:  56.97°N, 24.13°E
Report Text: EVRA 210520Z 32006KT 9999 FEW012 SCT026 OVC034 09/07 Q1001 R36/290195 NOSIG
Loading
Personal Weather Stations






























Interactive Weather Map
Tropical Storm Tracking
New forecast layout! Learn more

10-Day Weather Forecast

Advertisements
Track Severe Weather on mobile